Time;durP1;ratioP1;P1;durP2;ratioP2;P2;SDS_P1;SDS_P2;PMS_P1;PMS_P2;Temp;Humidity;BMP_temperature;BMP_pressure;BME280_temperature;BME280_humidity;BME280_pressure;Samples;Min_cycle;Max_cycle;Signal;HPM_P1;HPM_P2
2022/12/20 08:37:59;;;;;;;11.90;7.57;;;9.70;99.90;;;;;;5109479;27;20573;-61
2022/12/20 08:40:25;;;;;;;9.50;6.63;;;9.70;99.90;;;;;;5127475;28;20045;-61
2022/12/20 08:42:50;;;;;;;9.40;6.63;;;9.80;99.90;;;;;;5126901;28;20098;-62
2022/12/20 08:45:18;;;;;;;8.68;4.22;;;9.90;99.90;;;;;;5123897;28;20082;-62
2022/12/20 08:47:43;;;;;;;10.75;5.30;;;10.00;99.90;;;;;;5107221;28;20057;-63
2022/12/20 08:50:09;;;;;;;8.93;5.68;;;10.10;99.90;;;;;;5108653;28;20028;-62
2022/12/20 08:52:35;;;;;;;13.30;7.38;;;10.20;99.90;;;;;;5117362;28;20455;-61
2022/12/20 08:55:01;;;;;;;14.32;8.02;;;10.20;99.90;;;;;;5103733;28;20070;-62
2022/12/20 08:57:26;;;;;;;8.73;6.82;;;10.30;99.90;;;;;;5103605;28;20038;-60
2022/12/20 08:59:52;;;;;;;9.18;6.20;;;10.30;99.90;;;;;;5106871;28;20024;-61
2022/12/20 09:02:18;;;;;;;7.68;5.22;;;10.40;99.90;;;;;;5107941;28;20552;-61
2022/12/20 09:04:43;;;;;;;8.32;5.57;;;10.30;99.90;;;;;;5126462;28;20076;-60
2022/12/20 09:07:09;;;;;;;8.07;4.88;;;10.40;99.90;;;;;;5114672;28;20059;-61
2022/12/20 09:09:35;;;;;;;9.18;4.63;;;10.40;99.90;;;;;;5118424;28;20042;-62
2022/12/20 09:12:01;;;;;;;6.68;3.97;;;10.50;99.90;;;;;;5086810;28;20106;-60
2022/12/20 09:14:26;;;;;;;8.68;4.15;;;10.60;99.90;;;;;;5103855;28;20020;-60
2022/12/20 09:16:52;;;;;;;5.65;3.55;;;10.60;99.90;;;;;;5106212;28;20126;-60
2022/12/20 09:19:18;;;;;;;7.32;3.30;;;10.70;99.90;;;;;;5126425;28;20023;-61
2022/12/20 09:21:43;;;;;;;6.15;3.63;;;10.70;99.90;;;;;;5127065;28;20027;-61
2022/12/20 09:24:09;;;;;;;6.43;3.33;;;10.70;99.90;;;;;;5125604;28;20053;-61
2022/12/20 09:26:35;;;;;;;5.72;3.38;;;10.70;99.90;;;;;;5126938;28;20023;-61
2022/12/20 09:29:02;;;;;;;5.55;3.35;;;10.60;99.90;;;;;;5122666;28;20121;-60
2022/12/20 09:31:27;;;;;;;6.53;3.72;;;10.60;99.90;;;;;;5125166;28;20548;-61
2022/12/20 09:33:56;;;;;;;7.65;3.90;;;10.50;99.90;;;;;;5126297;28;20035;-60
2022/12/20 09:36:23;;;;;;;8.35;4.95;;;10.50;99.90;;;;;;5109935;28;20040;-61
2022/12/20 09:38:49;;;;;;;9.25;4.57;;;10.40;99.90;;;;;;5119218;28;20032;-61
2022/12/20 09:41:27;;;;;;;13.02;5.93;;;10.30;99.90;;;;;;5103722;28;20497;-60
2022/12/20 09:43:54;;;;;;;8.90;4.93;;;10.30;99.90;;;;;;5114867;28;20103;-61
2022/12/20 09:46:23;;;;;;;7.97;5.00;;;10.30;99.90;;;;;;5125022;28;20022;-61
2022/12/20 09:48:49;;;;;;;8.57;5.47;;;10.30;99.90;;;;;;5093776;28;20060;-61
2022/12/20 09:51:39;;;;;;;12.85;5.20;;;10.20;99.90;;;;;;5106981;28;20054;-60
2022/12/20 09:54:20;;;;;;;8.07;4.53;;;10.30;99.90;;;;;;5071163;28;20046;-61
2022/12/20 09:56:50;;;;;;;8.48;4.95;;;10.30;99.90;;;;;;5071335;28;21088;-60
2022/12/20 09:59:19;;;;;;;11.45;7.22;;;10.30;99.90;;;;;;5071609;28;20480;-60
2022/12/20 10:01:47;;;;;;;8.85;5.60;;;10.40;99.90;;;;;;5093050;28;20036;-60
2022/12/20 10:04:25;;;;;;;9.55;5.60;;;10.40;99.90;;;;;;5096792;27;20515;-61
2022/12/20 10:07:06;;;;;;;7.53;5.05;;;10.50;99.90;;;;;;5070365;28;20024;-60
2022/12/20 10:10:00;;;;;;;9.65;5.10;;;10.50;99.90;;;;;;5076870;28;20024;-60
2022/12/20 10:12:41;;;;;;;11.38;4.75;;;10.60;99.90;;;;;;5091726;28;20028;-60
2022/12/20 10:15:13;;;;;;;8.07;4.17;;;10.70;99.90;;;;;;5088761;28;20051;-60
2022/12/20 10:17:39;;;;;;;8.18;4.72;;;10.70;99.90;;;;;;5103552;28;20315;-61
2022/12/20 10:20:17;;;;;;;9.95;5.40;;;10.70;99.90;;;;;;5111651;28;20051;-60
2022/12/20 10:22:55;;;;;;;6.55;3.75;;;10.60;99.90;;;;;;5108956;28;20028;-60
2022/12/20 10:25:26;;;;;;;7.13;4.13;;;10.60;99.90;;;;;;5108901;28;20460;-60
2022/12/20 10:27:55;;;;;;;8.18;4.78;;;10.60;99.90;;;;;;5100011;28;20031;-60
2022/12/20 10:30:25;;;;;;;7.75;4.75;;;10.60;99.90;;;;;;5107141;28;20020;-61
2022/12/20 10:32:54;;;;;;;8.00;5.07;;;10.60;99.90;;;;;;5091100;28;20020;-60
2022/12/20 10:35:27;;;;;;;10.55;6.47;;;10.60;99.90;;;;;;5088255;28;20321;-61
2022/12/20 10:38:02;;;;;;;12.95;9.00;;;10.70;99.90;;;;;;5089095;28;20055;-61
2022/12/20 10:40:30;;;;;;;12.15;6.65;;;10.70;99.90;;;;;;5091594;28;20040;-61
2022/12/20 10:42:56;;;;;;;9.02;4.63;;;10.70;99.90;;;;;;5108106;28;20532;-61
2022/12/20 10:45:21;;;;;;;7.63;4.82;;;10.70;99.90;;;;;;5105377;28;20058;-61
2022/12/20 10:47:50;;;;;;;7.63;4.93;;;10.70;99.90;;;;;;5089260;28;20128;-60
2022/12/20 10:50:19;;;;;;;8.23;4.80;;;10.70;99.90;;;;;;5090780;28;20480;-61
2022/12/20 10:53:21;;;;;;;8.15;4.70;;;10.70;99.90;;;;;;5090367;28;20020;-60
2022/12/20 10:55:46;;;;;;;;;;;10.60;99.90;;;;;;5100256;28;20534;-61
2022/12/20 10:58:29;;;;;;;5.63;3.60;;;10.60;99.90;;;;;;5110611;28;19908;-60
2022/12/20 11:01:14;;;;;;;11.38;6.40;;;10.50;99.90;;;;;;5107286;28;20488;-60
2022/12/20 11:03:55;;;;;;;10.65;5.88;;;10.50;99.90;;;;;;5104676;28;20031;-60
2022/12/20 11:06:24;;;;;;;7.45;5.20;;;10.50;99.90;;;;;;5111256;28;20027;-61
2022/12/20 11:08:50;;;;;;;11.52;6.63;;;10.50;99.90;;;;;;5107927;28;20037;-61
2022/12/20 11:11:22;;;;;;;15.27;7.05;;;10.50;99.90;;;;;;5081695;28;20032;-60
2022/12/20 11:13:49;;;;;;;9.65;6.28;;;10.60;99.90;;;;;;5083580;28;20036;-61
2022/12/20 11:16:37;;;;;;;14.82;7.55;;;10.60;99.90;;;;;;5090255;28;20020;-61
2022/12/20 11:19:02;;;;;;;15.57;8.30;;;10.60;99.90;;;;;;5069836;28;20035;-61
2022/12/20 11:21:31;;;;;;;12.07;7.65;;;10.60;99.90;;;;;;5089222;28;21301;-60
2022/12/20 11:24:35;;;;;;;10.43;6.53;;;10.60;99.90;;;;;;5070320;28;20028;-59
2022/12/20 11:27:46;;;;;;;8.60;5.35;;;10.60;99.90;;;;;;4995028;28;20030;-59
2022/12/20 11:30:45;;;;;;;8.00;4.50;;;10.60;99.90;;;;;;4986845;28;20038;-59
2022/12/20 11:33:37;;;;;;;9.10;4.88;;;10.70;99.90;;;;;;5041212;28;20039;-60
2022/12/20 11:36:21;;;;;;;10.80;4.88;;;10.70;99.90;;;;;;5108936;28;20019;-61
2022/12/20 17:25:28;;;;;;;18.27;11.50;;;9.80;99.90;;;;;;5067790;28;20329;-66
2022/12/20 17:27:54;;;;;;;19.13;12.50;;;9.80;99.90;;;;;;5045217;28;20119;-64
2022/12/20 17:30:21;;;;;;;20.17;12.32;;;9.90;99.90;;;;;;5047901;28;20067;-63
2022/12/20 17:32:47;;;;;;;21.65;13.40;;;10.00;99.90;;;;;;5046394;28;20470;-65
2022/12/20 17:35:18;;;;;;;18.33;11.93;;;10.10;99.90;;;;;;5038485;28;20049;-64
2022/12/20 17:37:45;;;;;;;19.80;13.30;;;10.10;99.90;;;;;;5027842;28;20076;-65
2022/12/20 17:40:13;;;;;;;18.70;12.57;;;10.20;99.90;;;;;;5043818;28;20052;-64
2022/12/20 17:42:40;;;;;;;23.25;14.80;;;10.30;99.90;;;;;;5046781;28;20104;-62
2022/12/20 17:45:20;;;;;;;22.00;13.27;;;10.30;99.90;;;;;;5047136;28;20025;-62
2022/12/20 17:47:46;;;;;;;27.95;16.45;;;10.30;99.90;;;;;;5046026;28;20455;-63
2022/12/20 17:50:14;;;;;;;25.83;16.33;;;10.30;99.90;;;;;;5044367;28;20513;-62
2022/12/20 17:52:40;;;;;;;24.98;14.88;;;10.40;99.90;;;;;;5047365;28;20025;-63
2022/12/20 17:55:10;;;;;;;23.73;15.35;;;10.40;99.90;;;;;;5045652;28;20576;-66
2022/12/20 17:57:35;;;;;;;22.02;14.77;;;10.40;99.90;;;;;;5045643;28;20281;-62
2022/12/20 18:00:01;;;;;;;23.80;14.95;;;10.40;99.90;;;;;;5039316;28;20033;-64
2022/12/20 18:02:27;;;;;;;23.98;14.88;;;10.40;99.90;;;;;;5047261;28;20028;-70
2022/12/20 18:04:53;;;;;;;23.20;14.57;;;10.40;99.90;;;;;;5045835;28;20418;-66
2022/12/20 18:07:18;;;;;;;25.00;16.02;;;10.40;99.90;;;;;;5047165;28;20033;-65
2022/12/20 18:09:48;;;;;;;27.65;15.63;;;10.40;99.90;;;;;;5029162;28;20414;-64
2022/12/20 18:12:13;;;;;;;24.92;15.65;;;10.40;99.90;;;;;;5027017;28;20029;-64
2022/12/20 18:14:39;;;;;;;23.58;15.27;;;10.40;99.90;;;;;;5027015;28;20030;-62
2022/12/20 18:17:04;;;;;;;24.70;15.18;;;10.40;99.90;;;;;;5026166;28;20382;-64
2022/12/20 18:19:30;;;;;;;23.95;14.77;;;10.40;99.90;;;;;;5031451;28;20030;-63
2022/12/20 18:21:57;;;;;;;21.35;14.60;;;10.40;99.90;;;;;;5047136;28;20028;-64
2022/12/20 18:24:22;;;;;;;24.88;16.63;;;10.50;99.90;;;;;;5056021;28;20036;-64
2022/12/20 18:26:48;;;;;;;27.85;16.48;;;10.40;99.90;;;;;;5049132;28;20025;-65
2022/12/20 18:29:13;;;;;;;35.35;19.20;;;10.40;99.90;;;;;;5060512;28;20029;-65
2022/12/20 18:31:39;;;;;;;34.92;21.20;;;10.50;99.90;;;;;;5051619;28;20063;-64
2022/12/20 18:34:05;;;;;;;39.08;23.98;;;10.50;99.90;;;;;;5060895;28;20393;-65
2022/12/20 18:36:33;;;;;;;31.55;20.15;;;10.50;99.90;;;;;;5024414;28;20129;-66
2022/12/20 18:39:00;;;;;;;31.95;21.00;;;10.50;99.90;;;;;;5032615;28;20234;-65
2022/12/20 18:41:28;;;;;;;27.17;19.58;;;10.50;99.90;;;;;;5015314;28;20025;-66
2022/12/20 18:44:00;;;;;;;26.38;17.70;;;10.50;99.90;;;;;;5033283;28;20068;-66
2022/12/20 18:46:26;;;;;;;26.40;17.27;;;10.50;99.90;;;;;;5036967;28;20013;-66
2022/12/20 18:48:54;;;;;;;26.60;16.38;;;10.50;99.90;;;;;;5053200;28;20052;-65
2022/12/20 18:51:23;;;;;;;28.38;17.15;;;10.50;99.90;;;;;;5024297;28;20158;-65
2022/12/20 18:53:50;;;;;;;23.83;15.80;;;10.50;99.90;;;;;;5051985;28;20506;-64
2022/12/20 18:56:19;;;;;;;25.20;16.13;;;10.50;99.90;;;;;;5052613;28;20029;-64
2022/12/20 18:58:46;;;;;;;22.55;14.43;;;10.50;99.90;;;;;;5052738;28;20021;-64
2022/12/20 19:01:18;;;;;;;22.67;14.27;;;10.50;99.90;;;;;;5042404;28;20053;-64
2022/12/20 19:03:44;;;;;;;24.83;15.63;;;10.50;99.90;;;;;;5032653;28;20434;-64
2022/12/20 19:06:09;;;;;;;26.20;15.65;;;10.50;99.90;;;;;;5032016;28;20021;-65
2022/12/20 19:08:35;;;;;;;23.35;14.73;;;10.50;99.90;;;;;;5032606;28;20108;-66
2022/12/20 19:11:07;;;;;;;23.52;14.80;;;10.50;99.90;;;;;;5032233;28;20382;-65
2022/12/20 19:13:33;;;;;;;27.52;15.43;;;10.50;99.90;;;;;;5013875;28;20033;-64
2022/12/20 19:16:01;;;;;;;24.67;15.43;;;10.50;99.90;;;;;;5047848;28;20074;-64
2022/12/20 19:18:27;;;;;;;23.48;15.02;;;10.50;99.90;;;;;;5034644;28;20035;-65
2022/12/20 19:20:52;;;;;;;23.13;14.82;;;10.50;99.90;;;;;;5035629;28;20033;-64
2022/12/20 19:23:19;;;;;;;24.50;15.38;;;10.50;99.90;;;;;;5010478;28;20034;-64
2022/12/20 19:25:45;;;;;;;22.52;14.75;;;10.50;99.90;;;;;;5024303;28;20037;-65
2022/12/20 19:28:11;;;;;;;24.83;15.20;;;10.50;99.90;;;;;;5011509;28;20028;-63
2022/12/20 19:30:37;;;;;;;28.25;15.32;;;10.50;99.90;;;;;;5012000;28;20064;-64
2022/12/20 19:33:02;;;;;;;26.40;15.77;;;10.50;99.90;;;;;;5030388;28;20021;-64
2022/12/20 19:35:29;;;;;;;25.63;14.93;;;10.50;99.90;;;;;;5031493;28;20037;-64
2022/12/20 19:37:55;;;;;;;23.50;14.35;;;10.50;99.90;;;;;;5031416;28;20037;-63
2022/12/20 19:40:21;;;;;;;23.85;14.52;;;10.50;99.90;;;;;;5032021;28;20386;-63
2022/12/20 19:42:46;;;;;;;22.15;14.13;;;10.50;99.90;;;;;;5031585;28;20030;-64
2022/12/20 19:45:12;;;;;;;25.67;15.57;;;10.50;99.90;;;;;;5030953;28;20613;-63
2022/12/20 19:47:38;;;;;;;26.00;15.73;;;10.50;99.90;;;;;;5010352;28;20471;-62
2022/12/20 19:50:05;;;;;;;25.88;15.93;;;10.50;99.90;;;;;;5011403;28;20037;-63
2022/12/20 19:52:31;;;;;;;24.77;14.77;;;10.50;99.90;;;;;;5028656;28;20025;-63
2022/12/20 19:54:57;;;;;;;27.45;14.38;;;10.50;99.90;;;;;;5032232;28;20441;-64
2022/12/20 19:57:23;;;;;;;26.75;15.60;;;10.50;99.90;;;;;;5028592;28;20032;-63
2022/12/20 19:59:48;;;;;;;26.27;15.68;;;10.50;99.90;;;;;;5031170;28;20025;-63
2022/12/20 20:02:14;;;;;;;23.50;14.18;;;10.50;99.90;;;;;;5028943;28;20037;-63
2022/12/20 20:04:41;;;;;;;23.55;14.23;;;10.50;99.90;;;;;;5031586;28;20046;-66
2022/12/20 20:07:07;;;;;;;27.13;15.35;;;10.50;99.90;;;;;;5031668;28;20506;-65
2022/12/20 20:09:33;;;;;;;27.83;16.13;;;10.50;99.90;;;;;;5023546;28;20064;-66
2022/12/20 20:12:00;;;;;;;25.35;15.73;;;10.50;99.90;;;;;;5013977;28;20125;-64
2022/12/20 20:14:26;;;;;;;22.52;14.00;;;10.50;99.90;;;;;;5011691;28;20054;-65
2022/12/20 20:16:51;;;;;;;25.40;14.63;;;10.50;99.90;;;;;;5011530;28;20048;-64
2022/12/20 20:19:18;;;;;;;24.35;14.40;;;10.50;99.90;;;;;;5011020;28;20432;-65
2022/12/20 20:21:44;;;;;;;24.15;13.73;;;10.50;99.90;;;;;;5011511;28;20022;-65
2022/12/20 20:24:09;;;;;;;25.02;14.35;;;10.50;99.90;;;;;;5022906;28;20083;-65
2022/12/20 20:26:35;;;;;;;25.30;14.45;;;10.50;99.90;;;;;;5031419;28;20452;-65
2022/12/20 20:29:01;;;;;;;21.92;13.23;;;10.50;99.90;;;;;;5031733;28;20075;-65
2022/12/20 20:31:27;;;;;;;23.88;14.35;;;10.50;99.90;;;;;;5037368;28;20104;-65
2022/12/20 20:33:53;;;;;;;24.38;14.13;;;10.50;99.90;;;;;;5031271;28;20520;-68
2022/12/20 20:36:21;;;;;;;21.80;13.23;;;10.50;99.90;;;;;;5035970;28;20038;-66
2022/12/20 20:38:47;;;;;;;22.50;12.88;;;10.50;99.90;;;;;;5017906;28;20021;-64
2022/12/20 20:41:13;;;;;;;25.80;14.63;;;10.50;99.90;;;;;;5031047;28;20670;-64
2022/12/20 20:43:39;;;;;;;19.35;12.52;;;10.50;99.90;;;;;;5032883;28;20037;-65
2022/12/20 20:46:07;;;;;;;19.45;12.48;;;10.50;99.90;;;;;;5050292;28;20071;-64
2022/12/20 20:48:33;;;;;;;19.63;11.77;;;10.50;99.90;;;;;;5036080;28;20136;-64
2022/12/20 20:50:59;;;;;;;22.73;12.52;;;10.50;99.90;;;;;;5035897;28;20041;-66
2022/12/20 20:53:25;;;;;;;21.40;11.98;;;10.50;99.90;;;;;;5050234;28;20473;-65
2022/12/20 20:55:51;;;;;;;22.30;12.68;;;10.50;99.90;;;;;;5033156;28;20029;-64
2022/12/20 20:58:17;;;;;;;20.95;12.30;;;10.50;99.90;;;;;;5050132;28;20040;-63
2022/12/20 21:00:42;;;;;;;22.10;11.98;;;10.50;99.90;;;;;;5048410;28;20040;-63
2022/12/20 21:03:08;;;;;;;22.60;12.55;;;10.60;99.90;;;;;;5030645;28;20521;-64
2022/12/20 21:05:34;;;;;;;23.20;12.30;;;10.50;99.90;;;;;;5030196;28;20034;-63
2022/12/20 21:07:59;;;;;;;21.58;12.10;;;10.50;99.90;;;;;;5030494;28;20021;-64
2022/12/20 21:10:25;;;;;;;21.05;11.43;;;10.50;99.90;;;;;;5038791;28;20107;-63
2022/12/20 21:12:51;;;;;;;20.60;11.80;;;10.50;99.90;;;;;;5013097;28;20025;-63
2022/12/20 21:15:17;;;;;;;19.08;11.18;;;10.50;99.90;;;;;;5012600;28;20053;-65
2022/12/20 21:17:44;;;;;;;20.73;11.85;;;10.60;99.90;;;;;;5030544;28;20530;-63
2022/12/20 21:20:10;;;;;;;21.88;11.18;;;10.60;99.90;;;;;;5029403;28;20040;-65
2022/12/20 21:22:36;;;;;;;20.67;11.52;;;10.50;99.90;;;;;;5029828;28;20033;-63
